sensor_id;sensor_type;location;lat;lon;timestamp;P1;durP1;ratioP1;P2;durP2;ratioP2
26702;SDS011;14316;51.074;3.704;2022-08-19T00:01:50;57.60;;;47.20;;
26702;SDS011;14316;51.074;3.704;2022-08-19T00:04:18;51.67;;;44.97;;
26702;SDS011;14316;51.074;3.704;2022-08-19T00:06:45;54.85;;;45.35;;
26702;SDS011;14316;51.074;3.704;2022-08-19T00:09:13;55.60;;;46.75;;
26702;SDS011;14316;51.074;3.704;2022-08-19T00:11:42;53.33;;;45.15;;
26702;SDS011;14316;51.074;3.704;2022-08-19T00:14:09;52.55;;;43.47;;
26702;SDS011;14316;51.074;3.704;2022-08-19T00:16:36;55.30;;;44.95;;
26702;SDS011;14316;51.074;3.704;2022-08-19T00:19:03;55.17;;;46.22;;
26702;SDS011;14316;51.074;3.704;2022-08-19T00:21:29;59.45;;;47.70;;
26702;SDS011;14316;51.074;3.704;2022-08-19T00:23:55;54.63;;;45.95;;
26702;SDS011;14316;51.074;3.704;2022-08-19T00:26:26;59.60;;;47.15;;
26702;SDS011;14316;51.074;3.704;2022-08-19T00:28:52;59.25;;;48.97;;
26702;SDS011;14316;51.074;3.704;2022-08-19T00:31:19;60.78;;;48.97;;
26702;SDS011;14316;51.074;3.704;2022-08-19T00:33:45;60.15;;;48.83;;
26702;SDS011;14316;51.074;3.704;2022-08-19T00:36:16;63.88;;;47.28;;
26702;SDS011;14316;51.074;3.704;2022-08-19T00:38:41;59.17;;;46.92;;
26702;SDS011;14316;51.074;3.704;2022-08-19T00:41:08;58.78;;;46.90;;
26702;SDS011;14316;51.074;3.704;2022-08-19T00:43:39;63.08;;;49.55;;
26702;SDS011;14316;51.074;3.704;2022-08-19T00:46:06;59.53;;;48.55;;
26702;SDS011;14316;51.074;3.704;2022-08-19T00:48:32;60.35;;;48.83;;
26702;SDS011;14316;51.074;3.704;2022-08-19T00:50:59;58.75;;;46.83;;
26702;SDS011;14316;51.074;3.704;2022-08-19T00:53:26;60.15;;;47.95;;
26702;SDS011;14316;51.074;3.704;2022-08-19T00:55:59;59.13;;;45.92;;
26702;SDS011;14316;51.074;3.704;2022-08-19T00:58:29;60.97;;;47.45;;
26702;SDS011;14316;51.074;3.704;2022-08-19T01:00:57;57.08;;;45.97;;
26702;SDS011;14316;51.074;3.704;2022-08-19T01:03:24;58.88;;;46.55;;
26702;SDS011;14316;51.074;3.704;2022-08-19T01:05:50;55.45;;;43.83;;
26702;SDS011;14316;51.074;3.704;2022-08-19T01:08:18;55.15;;;44.85;;
26702;SDS011;14316;51.074;3.704;2022-08-19T01:10:46;55.97;;;43.75;;
26702;SDS011;14316;51.074;3.704;2022-08-19T01:13:22;53.78;;;42.72;;
26702;SDS011;14316;51.074;3.704;2022-08-19T01:15:55;55.03;;;42.05;;
26702;SDS011;14316;51.074;3.704;2022-08-19T01:18:23;50.42;;;40.00;;
26702;SDS011;14316;51.074;3.704;2022-08-19T01:20:51;49.55;;;37.67;;
26702;SDS011;14316;51.074;3.704;2022-08-19T01:23:21;48.67;;;36.17;;
26702;SDS011;14316;51.074;3.704;2022-08-19T01:26:07;48.05;;;39.20;;
26702;SDS011;14316;51.074;3.704;2022-08-19T01:28:35;50.58;;;41.00;;
26702;SDS011;14316;51.074;3.704;2022-08-19T01:31:01;49.08;;;39.80;;
26702;SDS011;14316;51.074;3.704;2022-08-19T01:33:28;51.88;;;40.08;;
26702;SDS011;14316;51.074;3.704;2022-08-19T01:36:03;51.47;;;38.97;;
26702;SDS011;14316;51.074;3.704;2022-08-19T01:38:38;51.25;;;38.92;;
26702;SDS011;14316;51.074;3.704;2022-08-19T01:41:06;50.30;;;39.78;;
26702;SDS011;14316;51.074;3.704;2022-08-19T01:43:32;49.53;;;40.33;;
26702;SDS011;14316;51.074;3.704;2022-08-19T01:45:59;51.95;;;38.85;;
26702;SDS011;14316;51.074;3.704;2022-08-19T01:48:25;48.80;;;39.70;;
26702;SDS011;14316;51.074;3.704;2022-08-19T01:50:52;52.15;;;39.80;;
26702;SDS011;14316;51.074;3.704;2022-08-19T01:53:17;55.70;;;39.35;;
26702;SDS011;14316;51.074;3.704;2022-08-19T01:55:43;49.47;;;37.97;;
26702;SDS011;14316;51.074;3.704;2022-08-19T01:58:15;51.17;;;38.10;;
26702;SDS011;14316;51.074;3.704;2022-08-19T02:00:45;50.58;;;36.97;;
26702;SDS011;14316;51.074;3.704;2022-08-19T02:03:11;48.72;;;37.65;;
26702;SDS011;14316;51.074;3.704;2022-08-19T02:05:38;49.88;;;37.13;;
26702;SDS011;14316;51.074;3.704;2022-08-19T02:08:04;45.58;;;35.60;;
26702;SDS011;14316;51.074;3.704;2022-08-19T02:10:31;49.55;;;36.22;;
26702;SDS011;14316;51.074;3.704;2022-08-19T02:12:57;47.92;;;34.90;;
26702;SDS011;14316;51.074;3.704;2022-08-19T02:15:23;46.95;;;34.88;;
26702;SDS011;14316;51.074;3.704;2022-08-19T02:17:50;45.10;;;35.30;;
26702;SDS011;14316;51.074;3.704;2022-08-19T02:20:16;47.08;;;34.72;;
26702;SDS011;14316;51.074;3.704;2022-08-19T02:22:43;46.92;;;35.30;;
26702;SDS011;14316;51.074;3.704;2022-08-19T02:25:10;46.55;;;33.17;;
26702;SDS011;14316;51.074;3.704;2022-08-19T02:27:38;45.85;;;33.50;;
26702;SDS011;14316;51.074;3.704;2022-08-19T02:30:05;46.50;;;33.88;;
26702;SDS011;14316;51.074;3.704;2022-08-19T02:32:32;43.88;;;34.25;;
26702;SDS011;14316;51.074;3.704;2022-08-19T02:34:58;43.13;;;31.65;;
26702;SDS011;14316;51.074;3.704;2022-08-19T02:37:24;41.95;;;30.90;;
26702;SDS011;14316;51.074;3.704;2022-08-19T02:40:09;42.33;;;32.25;;
26702;SDS011;14316;51.074;3.704;2022-08-19T02:42:35;45.42;;;31.98;;
26702;SDS011;14316;51.074;3.704;2022-08-19T02:45:01;42.35;;;31.95;;
26702;SDS011;14316;51.074;3.704;2022-08-19T02:47:27;51.95;;;33.38;;
26702;SDS011;14316;51.074;3.704;2022-08-19T02:49:52;41.28;;;30.80;;
26702;SDS011;14316;51.074;3.704;2022-08-19T02:52:19;44.60;;;32.55;;
26702;SDS011;14316;51.074;3.704;2022-08-19T02:54:45;49.15;;;32.55;;
26702;SDS011;14316;51.074;3.704;2022-08-19T02:57:10;46.78;;;33.03;;
26702;SDS011;14316;51.074;3.704;2022-08-19T02:59:36;45.05;;;32.88;;
26702;SDS011;14316;51.074;3.704;2022-08-19T03:02:02;41.03;;;33.22;;
26702;SDS011;14316;51.074;3.704;2022-08-19T03:04:28;44.00;;;32.58;;
26702;SDS011;14316;51.074;3.704;2022-08-19T03:06:54;49.08;;;33.92;;
26702;SDS011;14316;51.074;3.704;2022-08-19T03:09:20;49.55;;;32.90;;
26702;SDS011;14316;51.074;3.704;2022-08-19T03:11:46;45.10;;;35.45;;
26702;SDS011;14316;51.074;3.704;2022-08-19T03:14:12;41.33;;;32.78;;
26702;SDS011;14316;51.074;3.704;2022-08-19T03:16:47;48.70;;;34.33;;
26702;SDS011;14316;51.074;3.704;2022-08-19T03:19:16;42.20;;;31.92;;
26702;SDS011;14316;51.074;3.704;2022-08-19T03:21:43;43.10;;;31.95;;
26702;SDS011;14316;51.074;3.704;2022-08-19T03:24:13;42.70;;;31.02;;
26702;SDS011;14316;51.074;3.704;2022-08-19T03:26:41;40.22;;;31.17;;
26702;SDS011;14316;51.074;3.704;2022-08-19T03:29:09;39.03;;;30.80;;
26702;SDS011;14316;51.074;3.704;2022-08-19T03:31:36;46.78;;;32.35;;
26702;SDS011;14316;51.074;3.704;2022-08-19T03:34:02;41.88;;;29.83;;
26702;SDS011;14316;51.074;3.704;2022-08-19T03:36:29;38.60;;;28.73;;
26702;SDS011;14316;51.074;3.704;2022-08-19T03:38:56;37.90;;;29.58;;
26702;SDS011;14316;51.074;3.704;2022-08-19T03:41:25;37.13;;;27.98;;
26702;SDS011;14316;51.074;3.704;2022-08-19T03:43:53;41.05;;;27.58;;
26702;SDS011;14316;51.074;3.704;2022-08-19T03:46:20;35.30;;;28.45;;
26702;SDS011;14316;51.074;3.704;2022-08-19T03:48:51;36.78;;;26.98;;
26702;SDS011;14316;51.074;3.704;2022-08-19T03:51:28;36.10;;;27.98;;
26702;SDS011;14316;51.074;3.704;2022-08-19T03:53:56;38.17;;;27.30;;
26702;SDS011;14316;51.074;3.704;2022-08-19T03:56:24;37.28;;;26.85;;
26702;SDS011;14316;51.074;3.704;2022-08-19T03:58:51;36.00;;;26.90;;
26702;SDS011;14316;51.074;3.704;2022-08-19T04:01:19;39.90;;;26.90;;
26702;SDS011;14316;51.074;3.704;2022-08-19T04:03:46;41.70;;;27.17;;
26702;SDS011;14316;51.074;3.704;2022-08-19T04:08:42;35.22;;;28.15;;
26702;SDS011;14316;51.074;3.704;2022-08-19T04:11:10;36.28;;;26.58;;
26702;SDS011;14316;51.074;3.704;2022-08-19T04:13:39;40.72;;;27.48;;
26702;SDS011;14316;51.074;3.704;2022-08-19T04:16:05;35.25;;;26.10;;
26702;SDS011;14316;51.074;3.704;2022-08-19T04:18:32;35.15;;;26.30;;
26702;SDS011;14316;51.074;3.704;2022-08-19T04:20:58;33.00;;;25.98;;
26702;SDS011;14316;51.074;3.704;2022-08-19T04:23:24;32.67;;;26.52;;
26702;SDS011;14316;51.074;3.704;2022-08-19T04:25:52;35.60;;;26.33;;
26702;SDS011;14316;51.074;3.704;2022-08-19T04:28:17;35.38;;;25.27;;
26702;SDS011;14316;51.074;3.704;2022-08-19T04:30:44;36.53;;;25.60;;
26702;SDS011;14316;51.074;3.704;2022-08-19T04:33:15;35.03;;;25.52;;
26702;SDS011;14316;51.074;3.704;2022-08-19T04:35:44;35.53;;;25.60;;
26702;SDS011;14316;51.074;3.704;2022-08-19T04:38:12;31.52;;;25.33;;
26702;SDS011;14316;51.074;3.704;2022-08-19T04:40:41;36.78;;;25.63;;
26702;SDS011;14316;51.074;3.704;2022-08-19T04:43:27;32.67;;;25.27;;
26702;SDS011;14316;51.074;3.704;2022-08-19T04:45:53;32.72;;;25.98;;
26702;SDS011;14316;51.074;3.704;2022-08-19T04:48:20;35.58;;;25.65;;
26702;SDS011;14316;51.074;3.704;2022-08-19T04:50:50;37.25;;;26.85;;
26702;SDS011;14316;51.074;3.704;2022-08-19T04:53:33;36.75;;;25.30;;
26702;SDS011;14316;51.074;3.704;2022-08-19T04:56:04;34.63;;;25.85;;
26702;SDS011;14316;51.074;3.704;2022-08-19T04:58:32;36.38;;;24.60;;
26702;SDS011;14316;51.074;3.704;2022-08-19T05:00:58;36.65;;;25.13;;
26702;SDS011;14316;51.074;3.704;2022-08-19T05:03:27;32.60;;;24.27;;
26702;SDS011;14316;51.074;3.704;2022-08-19T05:05:55;34.20;;;25.15;;
26702;SDS011;14316;51.074;3.704;2022-08-19T05:08:20;33.03;;;23.25;;
26702;SDS011;14316;51.074;3.704;2022-08-19T05:10:47;30.88;;;23.27;;
26702;SDS011;14316;51.074;3.704;2022-08-19T05:13:16;33.10;;;22.90;;
26702;SDS011;14316;51.074;3.704;2022-08-19T05:15:43;30.38;;;21.65;;
26702;SDS011;14316;51.074;3.704;2022-08-19T05:18:18;29.42;;;23.10;;
26702;SDS011;14316;51.074;3.704;2022-08-19T05:21:05;28.70;;;22.17;;
26702;SDS011;14316;51.074;3.704;2022-08-19T05:23:54;28.13;;;21.63;;
26702;SDS011;14316;51.074;3.704;2022-08-19T05:26:20;30.00;;;21.00;;
26702;SDS011;14316;51.074;3.704;2022-08-19T05:28:47;32.05;;;21.63;;
26702;SDS011;14316;51.074;3.704;2022-08-19T05:31:13;30.85;;;21.25;;
26702;SDS011;14316;51.074;3.704;2022-08-19T05:33:39;31.88;;;21.40;;
26702;SDS011;14316;51.074;3.704;2022-08-19T05:36:05;27.60;;;20.08;;
26702;SDS011;14316;51.074;3.704;2022-08-19T05:38:32;32.08;;;20.45;;
26702;SDS011;14316;51.074;3.704;2022-08-19T05:40:59;26.52;;;20.02;;
26702;SDS011;14316;51.074;3.704;2022-08-19T05:43:24;30.35;;;21.42;;
26702;SDS011;14316;51.074;3.704;2022-08-19T05:45:50;28.67;;;21.60;;
26702;SDS011;14316;51.074;3.704;2022-08-19T05:48:16;29.92;;;20.50;;
26702;SDS011;14316;51.074;3.704;2022-08-19T05:50:45;31.05;;;20.98;;
26702;SDS011;14316;51.074;3.704;2022-08-19T05:53:11;30.70;;;22.55;;
26702;SDS011;14316;51.074;3.704;2022-08-19T05:55:38;29.63;;;21.20;;
26702;SDS011;14316;51.074;3.704;2022-08-19T05:58:04;31.75;;;21.85;;
26702;SDS011;14316;51.074;3.704;2022-08-19T06:00:32;33.13;;;21.63;;
26702;SDS011;14316;51.074;3.704;2022-08-19T06:02:59;33.25;;;21.92;;
26702;SDS011;14316;51.074;3.704;2022-08-19T06:05:28;29.40;;;21.55;;
26702;SDS011;14316;51.074;3.704;2022-08-19T06:07:54;32.67;;;22.58;;
26702;SDS011;14316;51.074;3.704;2022-08-19T06:10:20;35.15;;;23.05;;
26702;SDS011;14316;51.074;3.704;2022-08-19T06:12:46;32.95;;;22.27;;
26702;SDS011;14316;51.074;3.704;2022-08-19T06:15:13;36.83;;;23.40;;
26702;SDS011;14316;51.074;3.704;2022-08-19T06:17:40;33.15;;;22.70;;
26702;SDS011;14316;51.074;3.704;2022-08-19T06:20:07;33.17;;;23.33;;
26702;SDS011;14316;51.074;3.704;2022-08-19T06:22:37;33.55;;;24.35;;
26702;SDS011;14316;51.074;3.704;2022-08-19T06:25:04;35.47;;;23.55;;
26702;SDS011;14316;51.074;3.704;2022-08-19T06:27:31;28.50;;;22.13;;
26702;SDS011;14316;51.074;3.704;2022-08-19T06:29:57;31.33;;;22.02;;
26702;SDS011;14316;51.074;3.704;2022-08-19T06:32:23;30.75;;;21.50;;
26702;SDS011;14316;51.074;3.704;2022-08-19T06:34:49;29.65;;;21.40;;
26702;SDS011;14316;51.074;3.704;2022-08-19T06:37:15;27.45;;;21.08;;
26702;SDS011;14316;51.074;3.704;2022-08-19T06:39:42;26.73;;;19.92;;
26702;SDS011;14316;51.074;3.704;2022-08-19T06:42:09;24.38;;;20.08;;
26702;SDS011;14316;51.074;3.704;2022-08-19T06:44:39;22.48;;;18.80;;
26702;SDS011;14316;51.074;3.704;2022-08-19T06:47:08;24.92;;;19.55;;
26702;SDS011;14316;51.074;3.704;2022-08-19T06:49:36;25.38;;;18.58;;
26702;SDS011;14316;51.074;3.704;2022-08-19T06:52:02;21.50;;;18.60;;
26702;SDS011;14316;51.074;3.704;2022-08-19T06:54:29;30.00;;;19.50;;
26702;SDS011;14316;51.074;3.704;2022-08-19T06:56:56;23.30;;;17.80;;
26702;SDS011;14316;51.074;3.704;2022-08-19T06:59:29;22.25;;;16.88;;
26702;SDS011;14316;51.074;3.704;2022-08-19T07:01:57;27.58;;;19.30;;
26702;SDS011;14316;51.074;3.704;2022-08-19T07:04:27;23.60;;;17.58;;
26702;SDS011;14316;51.074;3.704;2022-08-19T07:07:01;21.63;;;17.58;;
26702;SDS011;14316;51.074;3.704;2022-08-19T07:09:39;19.77;;;17.63;;
26702;SDS011;14316;51.074;3.704;2022-08-19T07:12:08;25.45;;;18.15;;
26702;SDS011;14316;51.074;3.704;2022-08-19T07:14:37;19.85;;;17.73;;
26702;SDS011;14316;51.074;3.704;2022-08-19T07:17:08;24.02;;;18.75;;
26702;SDS011;14316;51.074;3.704;2022-08-19T07:19:35;22.00;;;19.60;;
26702;SDS011;14316;51.074;3.704;2022-08-19T07:22:03;22.80;;;20.25;;
26702;SDS011;14316;51.074;3.704;2022-08-19T07:24:31;24.98;;;19.50;;
26702;SDS011;14316;51.074;3.704;2022-08-19T07:26:59;24.23;;;19.80;;
26702;SDS011;14316;51.074;3.704;2022-08-19T07:29:27;22.75;;;20.20;;
26702;SDS011;14316;51.074;3.704;2022-08-19T07:31:54;23.20;;;20.80;;
26702;SDS011;14316;51.074;3.704;2022-08-19T07:34:21;24.40;;;21.00;;
26702;SDS011;14316;51.074;3.704;2022-08-19T07:36:48;22.83;;;20.27;;
26702;SDS011;14316;51.074;3.704;2022-08-19T07:39:19;23.83;;;20.42;;
26702;SDS011;14316;51.074;3.704;2022-08-19T07:41:51;24.67;;;21.40;;
26702;SDS011;14316;51.074;3.704;2022-08-19T07:44:17;24.15;;;20.73;;
26702;SDS011;14316;51.074;3.704;2022-08-19T07:46:45;24.95;;;21.13;;
26702;SDS011;14316;51.074;3.704;2022-08-19T07:49:14;23.83;;;21.05;;
26702;SDS011;14316;51.074;3.704;2022-08-19T07:51:48;24.55;;;21.88;;
26702;SDS011;14316;51.074;3.704;2022-08-19T07:54:17;24.63;;;22.02;;
26702;SDS011;14316;51.074;3.704;2022-08-19T07:56:43;29.17;;;21.40;;
26702;SDS011;14316;51.074;3.704;2022-08-19T07:59:09;27.75;;;23.02;;
26702;SDS011;14316;51.074;3.704;2022-08-19T08:01:35;28.75;;;25.23;;
26702;SDS011;14316;51.074;3.704;2022-08-19T08:04:01;28.38;;;22.67;;
26702;SDS011;14316;51.074;3.704;2022-08-19T08:06:45;26.60;;;21.50;;
26702;SDS011;14316;51.074;3.704;2022-08-19T08:09:32;26.38;;;21.10;;
26702;SDS011;14316;51.074;3.704;2022-08-19T08:12:03;25.38;;;21.42;;
26702;SDS011;14316;51.074;3.704;2022-08-19T08:14:33;22.65;;;20.23;;
26702;SDS011;14316;51.074;3.704;2022-08-19T08:17:02;22.52;;;20.10;;
26702;SDS011;14316;51.074;3.704;2022-08-19T08:19:28;21.38;;;18.90;;
26702;SDS011;14316;51.074;3.704;2022-08-19T08:21:55;20.13;;;18.05;;
26702;SDS011;14316;51.074;3.704;2022-08-19T08:24:22;20.80;;;18.60;;
26702;SDS011;14316;51.074;3.704;2022-08-19T08:26:49;23.15;;;19.17;;
26702;SDS011;14316;51.074;3.704;2022-08-19T08:29:14;26.08;;;20.23;;
26702;SDS011;14316;51.074;3.704;2022-08-19T08:31:41;26.20;;;20.38;;
26702;SDS011;14316;51.074;3.704;2022-08-19T08:34:09;22.85;;;20.33;;
26702;SDS011;14316;51.074;3.704;2022-08-19T08:36:37;22.58;;;19.50;;
26702;SDS011;14316;51.074;3.704;2022-08-19T08:39:14;22.25;;;19.17;;
26702;SDS011;14316;51.074;3.704;2022-08-19T08:44:18;20.98;;;18.88;;
26702;SDS011;14316;51.074;3.704;2022-08-19T08:46:49;19.40;;;16.52;;
26702;SDS011;14316;51.074;3.704;2022-08-19T08:52:30;19.23;;;17.17;;
26702;SDS011;14316;51.074;3.704;2022-08-19T08:55:03;18.80;;;17.10;;
26702;SDS011;14316;51.074;3.704;2022-08-19T08:57:42;18.15;;;16.45;;
26702;SDS011;14316;51.074;3.704;2022-08-19T09:00:12;18.92;;;15.18;;
26702;SDS011;14316;51.074;3.704;2022-08-19T09:03:03;15.93;;;13.85;;
26702;SDS011;14316;51.074;3.704;2022-08-19T09:05:36;17.10;;;15.30;;
26702;SDS011;14316;51.074;3.704;2022-08-19T09:08:05;15.43;;;13.93;;
26702;SDS011;14316;51.074;3.704;2022-08-19T09:10:39;14.18;;;12.68;;
26702;SDS011;14316;51.074;3.704;2022-08-19T09:15:43;13.15;;;11.77;;
26702;SDS011;14316;51.074;3.704;2022-08-19T09:18:14;13.90;;;11.10;;
26702;SDS011;14316;51.074;3.704;2022-08-19T09:20:41;14.38;;;10.95;;
26702;SDS011;14316;51.074;3.704;2022-08-19T09:23:07;10.20;;;9.30;;
26702;SDS011;14316;51.074;3.704;2022-08-19T09:25:34;9.73;;;8.73;;
26702;SDS011;14316;51.074;3.704;2022-08-19T09:28:00;9.30;;;8.32;;
26702;SDS011;14316;51.074;3.704;2022-08-19T09:30:28;8.43;;;7.50;;
26702;SDS011;14316;51.074;3.704;2022-08-19T09:33:04;8.82;;;7.78;;
26702;SDS011;14316;51.074;3.704;2022-08-19T09:35:33;7.85;;;6.85;;
26702;SDS011;14316;51.074;3.704;2022-08-19T09:38:00;7.40;;;6.70;;
26702;SDS011;14316;51.074;3.704;2022-08-19T09:40:32;7.78;;;6.88;;
26702;SDS011;14316;51.074;3.704;2022-08-19T09:42:58;6.75;;;6.15;;
26702;SDS011;14316;51.074;3.704;2022-08-19T09:45:27;6.40;;;5.78;;
26702;SDS011;14316;51.074;3.704;2022-08-19T09:47:54;6.78;;;5.53;;
26702;SDS011;14316;51.074;3.704;2022-08-19T09:50:19;8.88;;;5.90;;
26702;SDS011;14316;51.074;3.704;2022-08-19T09:52:46;7.20;;;5.18;;
26702;SDS011;14316;51.074;3.704;2022-08-19T09:55:12;4.90;;;4.43;;
26702;SDS011;14316;51.074;3.704;2022-08-19T09:57:38;6.20;;;4.32;;
26702;SDS011;14316;51.074;3.704;2022-08-19T10:00:05;4.63;;;4.22;;
26702;SDS011;14316;51.074;3.704;2022-08-19T10:02:33;4.85;;;3.97;;
26702;SDS011;14316;51.074;3.704;2022-08-19T10:04:58;5.80;;;3.90;;
26702;SDS011;14316;51.074;3.704;2022-08-19T10:07:42;4.05;;;3.75;;
26702;SDS011;14316;51.074;3.704;2022-08-19T10:10:08;6.00;;;3.47;;
26702;SDS011;14316;51.074;3.704;2022-08-19T10:12:35;4.70;;;3.55;;
26702;SDS011;14316;51.074;3.704;2022-08-19T10:15:02;3.70;;;3.40;;
26702;SDS011;14316;51.074;3.704;2022-08-19T10:17:29;6.00;;;4.00;;
26702;SDS011;14316;51.074;3.704;2022-08-19T10:19:55;7.60;;;3.90;;
26702;SDS011;14316;51.074;3.704;2022-08-19T10:22:20;4.82;;;3.45;;
26702;SDS011;14316;51.074;3.704;2022-08-19T10:24:46;4.50;;;3.55;;
26702;SDS011;14316;51.074;3.704;2022-08-19T10:27:12;4.18;;;3.50;;
26702;SDS011;14316;51.074;3.704;2022-08-19T10:29:39;4.82;;;3.50;;
26702;SDS011;14316;51.074;3.704;2022-08-19T10:32:06;5.82;;;3.17;;
26702;SDS011;14316;51.074;3.704;2022-08-19T10:34:33;4.80;;;3.47;;
26702;SDS011;14316;51.074;3.704;2022-08-19T10:37:01;4.35;;;3.17;;
26702;SDS011;14316;51.074;3.704;2022-08-19T10:39:31;5.60;;;3.25;;
26702;SDS011;14316;51.074;3.704;2022-08-19T10:41:58;4.00;;;3.53;;
26702;SDS011;14316;51.074;3.704;2022-08-19T10:44:24;4.15;;;3.35;;
26702;SDS011;14316;51.074;3.704;2022-08-19T10:46:50;5.85;;;4.10;;
26702;SDS011;14316;51.074;3.704;2022-08-19T10:49:17;4.65;;;3.05;;
26702;SDS011;14316;51.074;3.704;2022-08-19T10:51:44;6.07;;;3.70;;
26702;SDS011;14316;51.074;3.704;2022-08-19T10:54:29;5.40;;;4.90;;
26702;SDS011;14316;51.074;3.704;2022-08-19T10:57:13;6.55;;;5.68;;
26702;SDS011;14316;51.074;3.704;2022-08-19T10:59:40;6.72;;;5.97;;
26702;SDS011;14316;51.074;3.704;2022-08-19T11:02:07;6.38;;;5.78;;
26702;SDS011;14316;51.074;3.704;2022-08-19T11:04:35;5.80;;;5.22;;
26702;SDS011;14316;51.074;3.704;2022-08-19T11:07:02;6.28;;;5.38;;
26702;SDS011;14316;51.074;3.704;2022-08-19T11:09:29;8.40;;;5.30;;
26702;SDS011;14316;51.074;3.704;2022-08-19T11:11:55;8.27;;;5.55;;
26702;SDS011;14316;51.074;3.704;2022-08-19T11:14:23;6.95;;;6.38;;
26702;SDS011;14316;51.074;3.704;2022-08-19T11:16:49;6.63;;;6.03;;
26702;SDS011;14316;51.074;3.704;2022-08-19T11:19:16;8.82;;;6.40;;
26702;SDS011;14316;51.074;3.704;2022-08-19T11:21:45;6.20;;;5.80;;
26702;SDS011;14316;51.074;3.704;2022-08-19T11:24:14;7.40;;;6.88;;
26702;SDS011;14316;51.074;3.704;2022-08-19T11:26:43;7.72;;;6.95;;
26702;SDS011;14316;51.074;3.704;2022-08-19T11:29:10;7.70;;;7.10;;
26702;SDS011;14316;51.074;3.704;2022-08-19T11:31:39;8.98;;;7.82;;
26702;SDS011;14316;51.074;3.704;2022-08-19T11:34:07;8.60;;;7.70;;
26702;SDS011;14316;51.074;3.704;2022-08-19T11:36:38;7.45;;;6.95;;
26702;SDS011;14316;51.074;3.704;2022-08-19T11:39:05;10.02;;;7.57;;
26702;SDS011;14316;51.074;3.704;2022-08-19T11:41:32;8.05;;;7.35;;
26702;SDS011;14316;51.074;3.704;2022-08-19T11:43:57;6.97;;;6.10;;
26702;SDS011;14316;51.074;3.704;2022-08-19T11:46:24;6.75;;;5.43;;
26702;SDS011;14316;51.074;3.704;2022-08-19T11:48:54;6.20;;;5.57;;
26702;SDS011;14316;51.074;3.704;2022-08-19T11:51:21;6.45;;;5.85;;
26702;SDS011;14316;51.074;3.704;2022-08-19T11:53:53;5.78;;;5.28;;
26702;SDS011;14316;51.074;3.704;2022-08-19T11:56:20;6.25;;;5.70;;
26702;SDS011;14316;51.074;3.704;2022-08-19T11:58:46;5.10;;;4.28;;
26702;SDS011;14316;51.074;3.704;2022-08-19T12:01:14;8.15;;;4.85;;
26702;SDS011;14316;51.074;3.704;2022-08-19T12:03:42;5.88;;;4.22;;
26702;SDS011;14316;51.074;3.704;2022-08-19T12:06:10;5.25;;;4.63;;
26702;SDS011;14316;51.074;3.704;2022-08-19T12:08:38;4.97;;;4.57;;
26702;SDS011;14316;51.074;3.704;2022-08-19T12:11:08;7.25;;;6.65;;
26702;SDS011;14316;51.074;3.704;2022-08-19T12:13:35;6.70;;;6.10;;
26702;SDS011;14316;51.074;3.704;2022-08-19T12:16:06;6.63;;;5.97;;
26702;SDS011;14316;51.074;3.704;2022-08-19T12:18:36;5.95;;;5.45;;
26702;SDS011;14316;51.074;3.704;2022-08-19T12:21:02;7.53;;;5.50;;
26702;SDS011;14316;51.074;3.704;2022-08-19T12:23:28;5.88;;;5.28;;
26702;SDS011;14316;51.074;3.704;2022-08-19T12:25:54;5.32;;;4.82;;
26702;SDS011;14316;51.074;3.704;2022-08-19T12:28:23;5.45;;;4.95;;
26702;SDS011;14316;51.074;3.704;2022-08-19T12:30:49;4.57;;;3.95;;
26702;SDS011;14316;51.074;3.704;2022-08-19T12:33:31;4.18;;;3.88;;
26702;SDS011;14316;51.074;3.704;2022-08-19T12:36:05;4.13;;;3.83;;
26702;SDS011;14316;51.074;3.704;2022-08-19T12:38:32;3.95;;;3.65;;
26702;SDS011;14316;51.074;3.704;2022-08-19T12:41:00;3.80;;;3.50;;
26702;SDS011;14316;51.074;3.704;2022-08-19T12:43:26;4.53;;;3.53;;
26702;SDS011;14316;51.074;3.704;2022-08-19T12:45:52;5.07;;;4.00;;
26702;SDS011;14316;51.074;3.704;2022-08-19T12:48:18;5.20;;;3.60;;
26702;SDS011;14316;51.074;3.704;2022-08-19T12:50:44;6.85;;;3.30;;
26702;SDS011;14316;51.074;3.704;2022-08-19T12:53:11;3.67;;;3.38;;
26702;SDS011;14316;51.074;3.704;2022-08-19T12:55:37;3.25;;;2.92;;
26702;SDS011;14316;51.074;3.704;2022-08-19T12:58:03;3.10;;;2.80;;
26702;SDS011;14316;51.074;3.704;2022-08-19T13:00:29;5.00;;;3.25;;
26702;SDS011;14316;51.074;3.704;2022-08-19T13:02:57;4.07;;;3.00;;
26702;SDS011;14316;51.074;3.704;2022-08-19T13:05:25;2.85;;;2.17;;
26702;SDS011;14316;51.074;3.704;2022-08-19T13:07:53;2.75;;;2.00;;
26702;SDS011;14316;51.074;3.704;2022-08-19T13:10:25;2.35;;;1.73;;
26702;SDS011;14316;51.074;3.704;2022-08-19T13:12:53;2.72;;;1.88;;
26702;SDS011;14316;51.074;3.704;2022-08-19T13:15:21;6.07;;;2.28;;
26702;SDS011;14316;51.074;3.704;2022-08-19T13:17:48;4.22;;;2.15;;
26702;SDS011;14316;51.074;3.704;2022-08-19T13:20:17;4.43;;;3.10;;
26702;SDS011;14316;51.074;3.704;2022-08-19T13:22:44;9.65;;;3.83;;
26702;SDS011;14316;51.074;3.704;2022-08-19T13:25:11;7.97;;;4.60;;
26702;SDS011;14316;51.074;3.704;2022-08-19T13:27:38;8.35;;;3.80;;
26702;SDS011;14316;51.074;3.704;2022-08-19T13:30:06;8.00;;;3.03;;
26702;SDS011;14316;51.074;3.704;2022-08-19T13:32:52;10.02;;;3.47;;
26702;SDS011;14316;51.074;3.704;2022-08-19T13:35:46;10.55;;;3.30;;
26702;SDS011;14316;51.074;3.704;2022-08-19T13:38:16;5.70;;;2.90;;
26702;SDS011;14316;51.074;3.704;2022-08-19T13:40:46;2.97;;;2.10;;
26702;SDS011;14316;51.074;3.704;2022-08-19T13:43:12;4.50;;;2.10;;
26702;SDS011;14316;51.074;3.704;2022-08-19T13:45:38;3.25;;;2.17;;
26702;SDS011;14316;51.074;3.704;2022-08-19T13:48:05;4.07;;;2.60;;
26702;SDS011;14316;51.074;3.704;2022-08-19T13:50:33;4.63;;;2.90;;
26702;SDS011;14316;51.074;3.704;2022-08-19T13:53:04;7.35;;;3.88;;
26702;SDS011;14316;51.074;3.704;2022-08-19T13:55:29;9.63;;;4.25;;
26702;SDS011;14316;51.074;3.704;2022-08-19T13:57:56;6.38;;;4.72;;
26702;SDS011;14316;51.074;3.704;2022-08-19T14:00:24;5.75;;;4.90;;
26702;SDS011;14316;51.074;3.704;2022-08-19T14:02:53;8.50;;;6.10;;
26702;SDS011;14316;51.074;3.704;2022-08-19T14:05:21;7.60;;;6.35;;
26702;SDS011;14316;51.074;3.704;2022-08-19T14:07:48;9.23;;;7.38;;
26702;SDS011;14316;51.074;3.704;2022-08-19T14:10:14;5.75;;;5.10;;
26702;SDS011;14316;51.074;3.704;2022-08-19T14:12:41;5.35;;;4.45;;
26702;SDS011;14316;51.074;3.704;2022-08-19T14:15:08;6.28;;;5.22;;
26702;SDS011;14316;51.074;3.704;2022-08-19T14:17:37;6.20;;;5.60;;
26702;SDS011;14316;51.074;3.704;2022-08-19T14:20:04;7.57;;;6.90;;
26702;SDS011;14316;51.074;3.704;2022-08-19T14:22:34;8.57;;;7.57;;
26702;SDS011;14316;51.074;3.704;2022-08-19T14:25:02;7.68;;;6.93;;
26702;SDS011;14316;51.074;3.704;2022-08-19T14:27:29;10.32;;;8.05;;
26702;SDS011;14316;51.074;3.704;2022-08-19T14:29:58;11.23;;;8.88;;
26702;SDS011;14316;51.074;3.704;2022-08-19T14:32:24;9.60;;;8.80;;
26702;SDS011;14316;51.074;3.704;2022-08-19T14:34:52;9.65;;;8.30;;
26702;SDS011;14316;51.074;3.704;2022-08-19T14:37:18;9.60;;;7.63;;
26702;SDS011;14316;51.074;3.704;2022-08-19T14:39:44;8.77;;;6.28;;
26702;SDS011;14316;51.074;3.704;2022-08-19T14:42:11;8.18;;;4.97;;
26702;SDS011;14316;51.074;3.704;2022-08-19T14:44:39;7.15;;;5.47;;
26702;SDS011;14316;51.074;3.704;2022-08-19T14:47:05;6.80;;;4.45;;
26702;SDS011;14316;51.074;3.704;2022-08-19T14:49:32;10.65;;;4.68;;